メインページ
METAR-TAF:

METAR-TAF

空港 :

ジョモ・ケニヤッタ国際空港

ナイロビ, ケニヤ

緯度: 01-19S, 経度: 036-55E, 海抜: 1624m

現時点の気象観測

当レポートは28分前の11:30(UTC)に作成
の風 11kt、北東から東/南東の間で変化する
気温 26°C
湿度 48%
気圧 1021 hPa
視程10km以上
高度2800ftの雲は散在している

METAR: HKJK 121130Z 08011KT 040V110 9999 SCT028 26/14 Q1021 NOSIG

時間: 14:58 (11:58 UTC)

予報

当レポートは6時間58分前の05:00(UTC)に作成
予報は12日の 06時(UTC)から 13日の 12時(UTC)まで有効
西/南西の風 10kt
視程10km以上
高度2200ftの雲は散在している
12日の 12時(UTC)から 12日の 18時(UTC)まで一時的に
高度2400ftの千切れ雲あり
高度8000ftの千切れ雲あり
12日の 20時(UTC)から 12日の 23時(UTC)まで徐々に
高度1600ftの千切れ雲あり
高度8000ftの千切れ雲あり
高度2200ftの雲はほとんどない
高度2300ftの雲は散在している
小雨

TAF: HKJK 120500Z 1206/1312 24010KT 9999 SCT022 TEMPO 1212/1218 -SHRAFEW023CB BKN024 BKN080 BECMG 1220/1223 -RA BKN016 BKN080 BECMG1308/1311 FEW022 SCT023

4,000以上の空港の気象観測と天気予報(METAR報とTAF報)

利用可能な観測所は地図上に黄色い丸と赤い丸で示す。

丸の上にカーソルを重ねると観測所名を参照できる。

次にクリックすると気象観測と天気予報を参照できる。

マップの切り替え:黒色「×」印の緑ボタンをクリックして拡大、「-」印の緑ボタンをクリックして縮小、緑色の三角印をクリックして隣りの地図に切り替え


METAR-TAF: